sensor_id;sensor_type;location;lat;lon;timestamp;temperature;humidity
39017;DHT22;24784;45.582;5.276;2022-10-22T05:57:25;13.50;99.90
39017;DHT22;24784;45.582;5.276;2022-10-22T06:18:04;13.50;99.90
39017;DHT22;24784;45.582;5.276;2022-10-22T06:23:27;13.30;99.90
39017;DHT22;24784;45.582;5.276;2022-10-22T06:32:37;13.40;99.90
39017;DHT22;24784;45.582;5.276;2022-10-22T06:45:57;13.60;99.90
39017;DHT22;24784;45.582;5.276;2022-10-22T06:48:30;13.50;99.90
39017;DHT22;24784;45.582;5.276;2022-10-22T06:51:14;13.60;99.90
39017;DHT22;24784;45.582;5.276;2022-10-22T07:02:19;13.60;99.90
39017;DHT22;24784;45.582;5.276;2022-10-22T07:07:35;13.50;99.90
39017;DHT22;24784;45.582;5.276;2022-10-22T07:10:03;13.40;99.90
39017;DHT22;24784;45.582;5.276;2022-10-22T07:12:38;13.50;99.90
39017;DHT22;24784;45.582;5.276;2022-10-22T07:15:26;13.40;99.90
39017;DHT22;24784;45.582;5.276;2022-10-22T07:18:04;13.50;99.90
39017;DHT22;24784;45.582;5.276;2022-10-22T07:25:54;13.40;99.90
39017;DHT22;24784;45.582;5.276;2022-10-22T07:34:33;13.50;99.90
39017;DHT22;24784;45.582;5.276;2022-10-22T07:37:32;13.50;99.90
39017;DHT22;24784;45.582;5.276;2022-10-22T07:56:27;13.50;99.90
39017;DHT22;24784;45.582;5.276;2022-10-22T07:59:15;13.50;99.90
39017;DHT22;24784;45.582;5.276;2022-10-22T08:01:49;13.60;99.90
39017;DHT22;24784;45.582;5.276;2022-10-22T08:04:15;13.60;99.90
39017;DHT22;24784;45.582;5.276;2022-10-22T09:23:36;17.80;99.90
39017;DHT22;24784;45.582;5.276;2022-10-22T09:28:49;17.30;99.90
39017;DHT22;24784;45.582;5.276;2022-10-22T09:31:17;17.40;99.90
39017;DHT22;24784;45.582;5.276;2022-10-22T09:33:51;17.60;99.90
39017;DHT22;24784;45.582;5.276;2022-10-22T09:36:21;17.70;99.90
39017;DHT22;24784;45.582;5.276;2022-10-22T09:38:49;17.70;99.90
39017;DHT22;24784;45.582;5.276;2022-10-22T09:41:18;17.90;99.90
39017;DHT22;24784;45.582;5.276;2022-10-22T09:46:28;18.10;99.90
39017;DHT22;24784;45.582;5.276;2022-10-22T09:48:59;18.10;99.90
39017;DHT22;24784;45.582;5.276;2022-10-22T09:54:47;18.20;99.90
39017;DHT22;24784;45.582;5.276;2022-10-22T09:57:24;18.40;99.90
39017;DHT22;24784;45.582;5.276;2022-10-22T09:59:55;18.60;99.90
39017;DHT22;24784;45.582;5.276;2022-10-22T10:02:28;18.70;99.90
39017;DHT22;24784;45.582;5.276;2022-10-22T10:05:13;18.70;99.90
39017;DHT22;24784;45.582;5.276;2022-10-22T10:07:52;18.70;99.90
39017;DHT22;24784;45.582;5.276;2022-10-22T10:10:44;18.60;99.90
39017;DHT22;24784;45.582;5.276;2022-10-22T10:16:57;18.90;99.90
39017;DHT22;24784;45.582;5.276;2022-10-22T10:19:42;19.00;99.90
39017;DHT22;24784;45.582;5.276;2022-10-22T10:25:40;19.00;99.90
39017;DHT22;24784;45.582;5.276;2022-10-22T10:31:14;19.00;99.90
39017;DHT22;24784;45.582;5.276;2022-10-22T10:42:31;19.10;99.90
39017;DHT22;24784;45.582;5.276;2022-10-22T10:45:20;19.00;99.90
39017;DHT22;24784;45.582;5.276;2022-10-22T10:50:49;18.90;99.90
39017;DHT22;24784;45.582;5.276;2022-10-22T11:07:52;19.30;99.90
39017;DHT22;24784;45.582;5.276;2022-10-22T11:10:53;19.30;99.90
39017;DHT22;24784;45.582;5.276;2022-10-22T11:13:51;19.40;99.90
39017;DHT22;24784;45.582;5.276;2022-10-22T11:16:47;19.60;99.90
39017;DHT22;24784;45.582;5.276;2022-10-22T11:22:34;19.50;99.90
39017;DHT22;24784;45.582;5.276;2022-10-22T11:25:25;19.80;99.90
39017;DHT22;24784;45.582;5.276;2022-10-22T11:31:00;19.80;99.90
39017;DHT22;24784;45.582;5.276;2022-10-22T11:33:35;20.00;99.90
39017;DHT22;24784;45.582;5.276;2022-10-22T11:36:05;20.00;99.90
39017;DHT22;24784;45.582;5.276;2022-10-22T11:38:34;20.00;99.90
39017;DHT22;24784;45.582;5.276;2022-10-22T11:41:13;19.90;99.90
39017;DHT22;24784;45.582;5.276;2022-10-22T11:53:05;20.00;99.90
39017;DHT22;24784;45.582;5.276;2022-10-22T11:55:55;20.20;99.90
39017;DHT22;24784;45.582;5.276;2022-10-22T12:16:43;20.70;99.90
39017;DHT22;24784;45.582;5.276;2022-10-22T12:25:21;20.80;99.90
39017;DHT22;24784;45.582;5.276;2022-10-22T12:27:52;20.80;99.90
39017;DHT22;24784;45.582;5.276;2022-10-22T12:30:22;20.80;99.90
39017;DHT22;24784;45.582;5.276;2022-10-22T12:32:57;20.90;99.90
39017;DHT22;24784;45.582;5.276;2022-10-22T12:35:34;21.00;99.90
39017;DHT22;24784;45.582;5.276;2022-10-22T12:38:16;21.00;99.90
39017;DHT22;24784;45.582;5.276;2022-10-22T12:40:47;21.10;99.90
39017;DHT22;24784;45.582;5.276;2022-10-22T12:46:24;21.30;99.90
39017;DHT22;24784;45.582;5.276;2022-10-22T12:52:23;21.30;99.90
39017;DHT22;24784;45.582;5.276;2022-10-22T13:20:00;21.50;99.90
39017;DHT22;24784;45.582;5.276;2022-10-22T13:30:36;21.50;99.90
39017;DHT22;24784;45.582;5.276;2022-10-22T13:33:42;21.40;99.90
39017;DHT22;24784;45.582;5.276;2022-10-22T13:36:30;21.40;99.90
39017;DHT22;24784;45.582;5.276;2022-10-22T13:39:18;21.50;99.90
39017;DHT22;24784;45.582;5.276;2022-10-22T13:41:44;21.40;99.90
39017;DHT22;24784;45.582;5.276;2022-10-22T13:44:10;21.40;99.90
39017;DHT22;24784;45.582;5.276;2022-10-22T13:46:37;21.40;99.90
39017;DHT22;24784;45.582;5.276;2022-10-22T13:49:24;21.30;99.90
39017;DHT22;24784;45.582;5.276;2022-10-22T13:52:07;21.30;99.90
39017;DHT22;24784;45.582;5.276;2022-10-22T13:54:45;21.20;99.90
39017;DHT22;24784;45.582;5.276;2022-10-22T14:00:20;21.10;99.90
39017;DHT22;24784;45.582;5.276;2022-10-22T14:02:49;21.20;99.90
39017;DHT22;24784;45.582;5.276;2022-10-22T14:05:22;21.30;99.90
39017;DHT22;24784;45.582;5.276;2022-10-22T14:07:48;21.10;99.90
39017;DHT22;24784;45.582;5.276;2022-10-22T14:10:21;21.00;99.90
39017;DHT22;24784;45.582;5.276;2022-10-22T14:12:55;21.00;99.90
39017;DHT22;24784;45.582;5.276;2022-10-22T14:15:41;21.10;99.90
39017;DHT22;24784;45.582;5.276;2022-10-22T14:18:11;21.30;99.90
39017;DHT22;24784;45.582;5.276;2022-10-22T14:20:43;21.30;99.90
39017;DHT22;24784;45.582;5.276;2022-10-22T14:23:21;21.20;99.90
39017;DHT22;24784;45.582;5.276;2022-10-22T14:25:47;21.20;99.90
39017;DHT22;24784;45.582;5.276;2022-10-22T14:28:23;21.00;99.90
39017;DHT22;24784;45.582;5.276;2022-10-22T14:30:53;20.90;99.90
39017;DHT22;24784;45.582;5.276;2022-10-22T14:33:22;20.90;99.90
39017;DHT22;24784;45.582;5.276;2022-10-22T14:35:51;20.90;99.90
39017;DHT22;24784;45.582;5.276;2022-10-22T14:38:30;20.80;99.90
39017;DHT22;24784;45.582;5.276;2022-10-22T14:40:58;20.70;99.90
39017;DHT22;24784;45.582;5.276;2022-10-22T14:43:39;20.70;99.90
39017;DHT22;24784;45.582;5.276;2022-10-22T14:46:05;20.60;99.90
39017;DHT22;24784;45.582;5.276;2022-10-22T14:48:31;20.60;99.90
39017;DHT22;24784;45.582;5.276;2022-10-22T14:50:56;20.50;99.90
39017;DHT22;24784;45.582;5.276;2022-10-22T14:53:28;20.50;99.90
39017;DHT22;24784;45.582;5.276;2022-10-22T14:55:55;20.50;99.90
39017;DHT22;24784;45.582;5.276;2022-10-22T14:58:27;20.40;99.90
39017;DHT22;24784;45.582;5.276;2022-10-22T15:00:52;20.40;99.90
39017;DHT22;24784;45.582;5.276;2022-10-22T15:03:18;20.30;99.90
39017;DHT22;24784;45.582;5.276;2022-10-22T15:05:50;20.30;99.90
39017;DHT22;24784;45.582;5.276;2022-10-22T16:22:35;18.60;99.90
39017;DHT22;24784;45.582;5.276;2022-10-22T16:49:45;18.10;99.90
39017;DHT22;24784;45.582;5.276;2022-10-22T16:55:17;17.90;99.90
39017;DHT22;24784;45.582;5.276;2022-10-22T17:36:54;17.00;99.90
39017;DHT22;24784;45.582;5.276;2022-10-22T17:39:32;17.00;99.90
39017;DHT22;24784;45.582;5.276;2022-10-22T17:42:05;17.00;99.90
39017;DHT22;24784;45.582;5.276;2022-10-22T17:44:36;16.90;99.90
39017;DHT22;24784;45.582;5.276;2022-10-22T17:47:05;17.00;99.90
39017;DHT22;24784;45.582;5.276;2022-10-22T17:49:30;16.90;99.90
39017;DHT22;24784;45.582;5.276;2022-10-22T17:51:56;17.00;99.90
39017;DHT22;24784;45.582;5.276;2022-10-22T17:54:24;16.90;99.90
39017;DHT22;24784;45.582;5.276;2022-10-22T17:56:55;16.90;99.90
39017;DHT22;24784;45.582;5.276;2022-10-22T17:59:21;17.00;99.90
39017;DHT22;24784;45.582;5.276;2022-10-22T18:01:47;16.90;99.90
39017;DHT22;24784;45.582;5.276;2022-10-22T18:06:49;16.70;99.90
39017;DHT22;24784;45.582;5.276;2022-10-22T18:09:16;16.70;99.90
39017;DHT22;24784;45.582;5.276;2022-10-22T18:11:43;16.70;99.90
39017;DHT22;24784;45.582;5.276;2022-10-22T18:14:10;16.60;99.90
39017;DHT22;24784;45.582;5.276;2022-10-22T18:16:36;16.60;99.90
39017;DHT22;24784;45.582;5.276;2022-10-22T18:19:02;16.50;99.90
39017;DHT22;24784;45.582;5.276;2022-10-22T18:21:28;16.50;99.90
39017;DHT22;24784;45.582;5.276;2022-10-22T18:23:56;16.50;99.90
39017;DHT22;24784;45.582;5.276;2022-10-22T18:26:22;16.50;99.90
39017;DHT22;24784;45.582;5.276;2022-10-22T18:28:50;16.50;99.90
39017;DHT22;24784;45.582;5.276;2022-10-22T18:31:19;16.50;99.90
39017;DHT22;24784;45.582;5.276;2022-10-22T18:33:45;16.50;99.90
39017;DHT22;24784;45.582;5.276;2022-10-22T18:36:14;16.50;99.90
39017;DHT22;24784;45.582;5.276;2022-10-22T18:38:40;16.40;99.90
39017;DHT22;24784;45.582;5.276;2022-10-22T18:41:07;16.40;99.90
39017;DHT22;24784;45.582;5.276;2022-10-22T18:43:35;16.40;99.90
39017;DHT22;24784;45.582;5.276;2022-10-22T18:46:01;16.40;99.90
39017;DHT22;24784;45.582;5.276;2022-10-22T18:48:30;16.30;99.90
39017;DHT22;24784;45.582;5.276;2022-10-22T18:51:03;16.30;99.90
39017;DHT22;24784;45.582;5.276;2022-10-22T18:53:29;16.30;99.90
39017;DHT22;24784;45.582;5.276;2022-10-22T18:55:55;16.20;99.90
39017;DHT22;24784;45.582;5.276;2022-10-22T18:58:21;16.20;99.90
39017;DHT22;24784;45.582;5.276;2022-10-22T19:00:47;16.20;99.90
39017;DHT22;24784;45.582;5.276;2022-10-22T19:03:13;16.10;99.90
39017;DHT22;24784;45.582;5.276;2022-10-22T19:05:50;16.20;99.90
39017;DHT22;24784;45.582;5.276;2022-10-22T19:08:16;16.10;99.90
39017;DHT22;24784;45.582;5.276;2022-10-22T19:10:44;16.00;99.90
39017;DHT22;24784;45.582;5.276;2022-10-22T19:13:13;16.00;99.90
39017;DHT22;24784;45.582;5.276;2022-10-22T19:15:40;16.00;99.90
39017;DHT22;24784;45.582;5.276;2022-10-22T19:18:10;16.00;99.90
39017;DHT22;24784;45.582;5.276;2022-10-22T19:20:42;15.90;99.90
39017;DHT22;24784;45.582;5.276;2022-10-22T19:23:10;15.90;99.90
39017;DHT22;24784;45.582;5.276;2022-10-22T19:25:37;15.90;99.90
39017;DHT22;24784;45.582;5.276;2022-10-22T19:28:03;15.90;99.90
